Time;durP1;ratioP1;P1;durP2;ratioP2;P2;SDS_P1;SDS_P2;PMS_P1;PMS_P2;Temp;Humidity;BMP_temperature;BMP_pressure;BME280_temperature;BME280_humidity;BME280_pressure;Samples;Min_cycle;Max_cycle;Signal;HPM_P1;HPM_P2
2023/08/03 00:00:55;;;;;;;;;;;;;;;;;;5324429;28;19907;-71
2023/08/03 00:03:26;;;;;;;;;;;;;;;;;;5325543;28;19910;-71
2023/08/03 00:05:57;;;;;;;;;;;;;;;;;;5325485;28;19906;-71
2023/08/03 00:08:28;;;;;;;;;;;;;;;;;;5324696;28;20355;-71
2023/08/03 00:11:00;;;;;;;;;;;;;;;;;;5325677;28;19903;-71
2023/08/03 00:13:31;;;;;;;;;;;;;;;;;;5325214;28;19900;-71
2023/08/03 00:16:02;;;;;;;;;;;;;;;;;;5324992;28;20277;-71
2023/08/03 00:18:33;;;;;;;;;;;;;;;;;;5325048;28;19904;-71
2023/08/03 00:21:05;;;;;;;;;;;;;;;;;;5324692;28;19903;-70
2023/08/03 00:23:36;;;;;;;;;;;;;;;;;;5324786;28;19910;-70
2023/08/03 00:26:07;;;;;;;;;;;;;;;;;;5325449;28;19904;-71
2023/08/03 00:28:38;;;;;;;;;;;;;;;;;;5323954;28;20390;-70
2023/08/03 00:31:09;;;;;;;;;;;;;;;;;;5325197;28;19908;-70
2023/08/03 00:33:40;;;;;;;;;;;;;;;;;;5324653;28;20386;-70
2023/08/03 00:36:11;;;;;;;;;;;;;;;;;;5324722;28;19912;-70
2023/08/03 00:38:42;;;;;;;;;;;;;;;;;;5324921;28;19911;-70
2023/08/03 00:41:14;;;;;;;;;;;;;;;;;;5325390;28;19903;-71
2023/08/03 00:43:45;;;;;;;;;;;;;;;;;;5324040;28;20525;-72
2023/08/03 00:46:16;;;;;;;;;;;;;;;;;;5325081;28;19949;-71
2023/08/03 00:48:47;;;;;;;;;;;;;;;;;;5324652;28;19904;-71
2023/08/03 00:51:18;;;;;;;;;;;;;;;;;;5324426;28;19911;-71
2023/08/03 00:53:49;;;;;;;;;;;;;;;;;;5324498;28;19955;-72
2023/08/03 00:56:20;;;;;;;;;;;;;;;;;;5324120;28;19934;-72
2023/08/03 00:58:51;;;;;;;;;;;;;;;;;;5324227;28;19904;-72
2023/08/03 01:01:22;;;;;;;;;;;;;;;;;;5324970;28;19907;-71
2023/08/03 01:03:54;;;;;;;;;;;;;;;;;;5323614;28;19904;-72
2023/08/03 01:06:25;;;;;;;;;;;;;;;;;;5324680;28;20358;-71
2023/08/03 01:08:59;;;;;;;;;;;;;;;;;;5324529;28;19904;-71
2023/08/03 01:11:30;;;;;;;;;;;;;;;;;;5323688;28;20274;-71
2023/08/03 01:14:01;;;;;;;;;;;;;;;;;;5324671;28;19904;-71
2023/08/03 01:16:32;;;;;;;;;;;;;;;;;;5324256;28;19912;-71
2023/08/03 01:19:03;;;;;;;;;;;;;;;;;;5323906;28;19911;-70
2023/08/03 01:21:35;;;;;;;;;;;;;;;;;;5323886;28;19907;-70
2023/08/03 01:24:06;;;;;;;;;;;;;;;;;;5324643;28;19957;-70
2023/08/03 01:26:37;;;;;;;;;;;;;;;;;;5323326;28;19999;-70
2023/08/03 01:29:08;;;;;;;;;;;;;;;;;;5324649;28;19903;-70
2023/08/03 01:31:39;;;;;;;;;;;;;;;;;;5323309;28;19911;-70
2023/08/03 01:34:13;;;;;;;;;;;;;;;;;;5324358;28;20378;-70
2023/08/03 01:36:44;;;;;;;;;;;;;;;;;;5323947;28;19912;-69
2023/08/03 01:39:15;;;;;;;;;;;;;;;;;;5323684;28;19908;-70
2023/08/03 01:41:46;;;;;;;;;;;;;;;;;;5323956;28;19965;-70
2023/08/03 01:44:17;;;;;;;;;;;;;;;;;;5324374;28;19935;-70
2023/08/03 01:46:48;;;;;;;;;;;;;;;;;;5323023;28;19904;-70
2023/08/03 01:49:19;;;;;;;;;;;;;;;;;;5324580;28;20278;-70
2023/08/03 01:51:50;;;;;;;;;;;;;;;;;;5323761;28;19965;-70
2023/08/03 01:54:22;;;;;;;;;;;;;;;;;;5323715;28;19911;-70
2023/08/03 01:56:53;;;;;;;;;;;;;;;;;;5323657;28;19918;-70
2023/08/03 01:59:24;;;;;;;;;;;;;;;;;;5324320;28;19911;-70
2023/08/03 02:01:55;;;;;;;;;;;;;;;;;;5323424;28;19947;-71
2023/08/03 02:04:26;;;;;;;;;;;;;;;;;;5324156;28;19911;-71
2023/08/03 02:06:57;;;;;;;;;;;;;;;;;;5323205;28;19947;-70
2023/08/03 02:09:28;;;;;;;;;;;;;;;;;;5323868;28;19935;-70
2023/08/03 02:11:59;;;;;;;;;;;;;;;;;;5323876;28;20362;-70
2023/08/03 02:14:30;;;;;;;;;;;;;;;;;;5323082;28;19935;-71
2023/08/03 02:17:02;;;;;;;;;;;;;;;;;;5324196;28;19998;-70
2023/08/03 02:19:35;;;;;;;;;;;;;;;;;;5323578;28;19938;-70
2023/08/03 02:22:06;;;;;;;;;;;;;;;;;;5323292;28;19911;-70
2023/08/03 02:24:37;;;;;;;;;;;;;;;;;;5327182;28;19904;-70
2023/08/03 02:27:08;;;;;;;;;;;;;;;;;;5328110;28;19904;-70
2023/08/03 02:29:39;;;;;;;;;;;;;;;;;;5326457;28;19949;-70
2023/08/03 02:32:10;;;;;;;;;;;;;;;;;;5327937;28;19911;-70
2023/08/03 02:34:41;;;;;;;;;;;;;;;;;;5326304;28;19915;-70
2023/08/03 02:37:12;;;;;;;;;;;;;;;;;;5327884;28;20450;-71
2023/08/03 02:39:43;;;;;;;;;;;;;;;;;;5327019;28;20010;-70
2023/08/03 02:42:14;;;;;;;;;;;;;;;;;;5326982;28;20277;-69
2023/08/03 02:44:45;;;;;;;;;;;;;;;;;;5326936;28;19960;-70
2023/08/03 02:47:16;;;;;;;;;;;;;;;;;;5327872;28;20316;-70
2023/08/03 02:49:48;;;;;;;;;;;;;;;;;;5326234;28;19964;-70
2023/08/03 02:52:19;;;;;;;;;;;;;;;;;;5327588;28;19904;-69
2023/08/03 02:54:50;;;;;;;;;;;;;;;;;;5326860;28;19956;-70
2023/08/03 02:57:21;;;;;;;;;;;;;;;;;;5326432;28;19919;-70
2023/08/03 02:59:52;;;;;;;;;;;;;;;;;;5326859;28;19903;-70
2023/08/03 03:02:23;;;;;;;;;;;;;;;;;;5326895;28;19899;-70
2023/08/03 03:04:54;;;;;;;;;;;;;;;;;;5326170;28;20299;-70
2023/08/03 03:07:27;;;;;;;;;;;;;;;;;;5326839;28;19904;-70
2023/08/03 03:09:58;;;;;;;;;;;;;;;;;;5326076;28;20390;-69
2023/08/03 03:12:29;;;;;;;;;;;;;;;;;;5326912;28;20036;-70
2023/08/03 03:15:00;;;;;;;;;;;;;;;;;;5326821;28;19907;-70
2023/08/03 03:17:31;;;;;;;;;;;;;;;;;;5325614;28;20282;-70
2023/08/03 03:20:03;;;;;;;;;;;;;;;;;;5326718;28;19911;-71
2023/08/03 03:22:35;;;;;;;;;;;;;;;;;;5326391;28;20358;-72
2023/08/03 03:25:06;;;;;;;;;;;;;;;;;;5325966;28;19973;-72
2023/08/03 03:27:37;;;;;;;;;;;;;;;;;;5326095;28;20385;-72
2023/08/03 03:30:09;;;;;;;;;;;;;;;;;;5326694;28;20341;-71
2023/08/03 03:32:40;;;;;;;;;;;;;;;;;;5325289;28;19995;-71
2023/08/03 03:35:11;;;;;;;;;;;;;;;;;;5325317;28;19937;-71
2023/08/03 03:37:42;;;;;;;;;;;;;;;;;;5326059;28;20389;-71
2023/08/03 03:40:13;;;;;;;;;;;;;;;;;;5325824;28;19904;-70
2023/08/03 03:42:44;;;;;;;;;;;;;;;;;;5325989;28;20379;-71
2023/08/03 03:45:15;;;;;;;;;;;;;;;;;;5325563;28;19946;-71
2023/08/03 03:47:46;;;;;;;;;;;;;;;;;;5325790;28;19904;-71
2023/08/03 03:50:17;;;;;;;;;;;;;;;;;;5326267;28;20355;-71
2023/08/03 03:52:49;;;;;;;;;;;;;;;;;;5324846;28;19903;-71
2023/08/03 03:55:20;;;;;;;;;;;;;;;;;;5326202;28;19904;-71
2023/08/03 03:57:51;;;;;;;;;;;;;;;;;;5325410;28;19956;-71
2023/08/03 04:00:22;;;;;;;;;;;;;;;;;;5325431;28;19904;-70
2023/08/03 04:02:53;;;;;;;;;;;;;;;;;;5325341;28;20384;-71
2023/08/03 04:05:25;;;;;;;;;;;;;;;;;;5325613;28;19904;-71
2023/08/03 04:07:56;;;;;;;;;;;;;;;;;;5324777;28;19899;-71
2023/08/03 04:10:27;;;;;;;;;;;;;;;;;;5325421;28;19957;-70
2023/08/03 04:12:59;;;;;;;;;;;;;;;;;;5325340;28;19952;-71
2023/08/03 04:15:30;;;;;;;;;;;;;;;;;;5324189;28;19904;-72
2023/08/03 04:18:01;;;;;;;;;;;;;;;;;;5325284;28;20382;-71
2023/08/03 04:20:32;;;;;;;;;;;;;;;;;;5323970;28;19904;-71
2023/08/03 04:23:03;;;;;;;;;;;;;;;;;;5325678;28;19910;-71
2023/08/03 04:25:34;;;;;;;;;;;;;;;;;;5324623;28;19904;-72
2023/08/03 04:28:05;;;;;;;;;;;;;;;;;;5324503;28;20350;-73
2023/08/03 04:30:37;;;;;;;;;;;;;;;;;;5324461;28;20315;-72
2023/08/03 04:33:08;;;;;;;;;;;;;;;;;;5325006;28;19964;-72
2023/08/03 04:35:40;;;;;;;;;;;;;;;;;;5323867;28;19903;-72
2023/08/03 04:38:11;;;;;;;;;;;;;;;;;;5325414;28;19956;-72
2023/08/03 04:40:42;;;;;;;;;;;;;;;;;;5324543;28;20039;-71
2023/08/03 04:43:13;;;;;;;;;;;;;;;;;;5324439;28;19986;-72
2023/08/03 04:45:44;;;;;;;;;;;;;;;;;;5324112;28;19907;-71
2023/08/03 04:48:15;;;;;;;;;;;;;;;;;;5324695;28;20332;-71
2023/08/03 04:50:46;;;;;;;;;;;;;;;;;;5324162;28;19904;-71
2023/08/03 04:53:17;;;;;;;;;;;;;;;;;;5324985;28;19910;-71
2023/08/03 04:55:48;;;;;;;;;;;;;;;;;;5323396;28;19957;-71
2023/08/03 04:58:20;;;;;;;;;;;;;;;;;;5324843;28;19943;-71
2023/08/03 05:00:51;;;;;;;;;;;;;;;;;;5324473;28;20332;-71
2023/08/03 05:03:22;;;;;;;;;;;;;;;;;;5323941;28;19904;-71
2023/08/03 05:05:53;;;;;;;;;;;;;;;;;;5324306;28;20414;-71
2023/08/03 05:08:24;;;;;;;;;;;;;;;;;;5324456;28;19911;-71
2023/08/03 05:10:55;;;;;;;;;;;;;;;;;;5323916;28;19910;-70
2023/08/03 05:13:27;;;;;;;;;;;;;;;;;;5324418;28;19903;-71
2023/08/03 05:15:58;;;;;;;;;;;;;;;;;;5324266;28;19955;-71
2023/08/03 05:18:29;;;;;;;;;;;;;;;;;;5323473;28;20002;-71
2023/08/03 05:21:00;;;;;;;;;;;;;;;;;;5324446;28;19903;-70
2023/08/03 05:23:31;;;;;;;;;;;;;;;;;;5323431;28;19911;-71
2023/08/03 05:26:02;;;;;;;;;;;;;;;;;;5324725;28;20433;-70
2023/08/03 05:28:33;;;;;;;;;;;;;;;;;;5324001;28;19910;-71
2023/08/03 05:31:05;;;;;;;;;;;;;;;;;;5323832;28;19904;-71
2023/08/03 05:33:36;;;;;;;;;;;;;;;;;;5323625;28;19920;-70
2023/08/03 05:36:07;;;;;;;;;;;;;;;;;;5324546;28;19908;-71
2023/08/03 05:38:38;;;;;;;;;;;;;;;;;;5323023;28;19908;-70
2023/08/03 05:41:09;;;;;;;;;;;;;;;;;;5324386;28;19963;-70
2023/08/03 05:43:40;;;;;;;;;;;;;;;;;;5323746;28;19904;-70
2023/08/03 05:46:11;;;;;;;;;;;;;;;;;;5323614;28;19915;-70
2023/08/03 05:48:42;;;;;;;;;;;;;;;;;;5323686;28;19910;-70
2023/08/03 05:51:13;;;;;;;;;;;;;;;;;;5324354;28;19903;-70
2023/08/03 05:53:44;;;;;;;;;;;;;;;;;;5322772;28;19903;-69
2023/08/03 05:56:16;;;;;;;;;;;;;;;;;;5324231;28;19916;-69
2023/08/03 05:58:47;;;;;;;;;;;;;;;;;;5325181;28;19911;-69
2023/08/03 06:01:18;;;;;;;;;;;;;;;;;;5328645;28;19910;-69
2023/08/03 06:03:49;;;;;;;;;;;;;;;;;;5328072;28;20421;-70
2023/08/03 06:06:20;;;;;;;;;;;;;;;;;;5327479;28;19904;-70
2023/08/03 06:08:51;;;;;;;;;;;;;;;;;;5327679;28;19904;-71
2023/08/03 06:11:22;;;;;;;;;;;;;;;;;;5328544;28;19903;-70
2023/08/03 06:13:53;;;;;;;;;;;;;;;;;;5326912;28;19903;-70
2023/08/03 06:16:25;;;;;;;;;;;;;;;;;;5327769;28;19911;-71
2023/08/03 06:18:56;;;;;;;;;;;;;;;;;;5327746;28;20277;-70
2023/08/03 06:21:27;;;;;;;;;;;;;;;;;;5326774;28;19915;-71
2023/08/03 06:23:58;;;;;;;;;;;;;;;;;;5327666;28;19904;-71
2023/08/03 06:26:29;;;;;;;;;;;;;;;;;;5327530;28;19956;-71
2023/08/03 06:29:05;;;;;;;;;;;;;;;;;;5327040;28;19903;-70
2023/08/03 06:31:36;;;;;;;;;;;;;;;;;;5327282;28;19969;-70
2023/08/03 06:34:07;;;;;;;;;;;;;;;;;;5326759;28;19916;-72
2023/08/03 06:36:38;;;;;;;;;;;;;;;;;;5327063;28;20015;-71
2023/08/03 06:39:09;;;;;;;;;;;;;;;;;;5327757;28;19904;-71
2023/08/03 06:41:40;;;;;;;;;;;;;;;;;;5326155;28;20251;-72
2023/08/03 06:44:12;;;;;;;;;;;;;;;;;;5327370;28;19911;-71
2023/08/03 06:46:43;;;;;;;;;;;;;;;;;;5327142;28;20216;-71
2023/08/03 06:49:14;;;;;;;;;;;;;;;;;;5326746;28;20000;-70
2023/08/03 06:51:45;;;;;;;;;;;;;;;;;;5326910;28;19961;-71
2023/08/03 06:54:16;;;;;;;;;;;;;;;;;;5327298;28;19915;-71
2023/08/03 06:56:47;;;;;;;;;;;;;;;;;;5325754;28;19912;-71
2023/08/03 06:59:21;;;;;;;;;;;;;;;;;;5327039;28;19903;-71
2023/08/03 07:01:52;;;;;;;;;;;;;;;;;;5326104;28;19946;-71
2023/08/03 07:04:23;;;;;;;;;;;;;;;;;;5326395;28;19951;-72
2023/08/03 07:06:54;;;;;;;;;;;;;;;;;;5326709;28;20351;-71
2023/08/03 07:09:26;;;;;;;;;;;;;;;;;;5325781;28;19966;-72
2023/08/03 07:11:57;;;;;;;;;;;;;;;;;;5326649;28;19903;-71
2023/08/03 07:14:28;;;;;;;;;;;;;;;;;;5326709;28;19907;-72
2023/08/03 07:16:59;;;;;;;;;;;;;;;;;;5325711;28;20306;-72
2023/08/03 07:19:30;;;;;;;;;;;;;;;;;;5326404;28;19956;-71
2023/08/03 07:22:01;;;;;;;;;;;;;;;;;;5326829;28;19961;-72
2023/08/03 07:24:32;;;;;;;;;;;;;;;;;;5325411;28;19946;-71
2023/08/03 07:27:04;;;;;;;;;;;;;;;;;;5326780;28;19904;-71
2023/08/03 07:29:35;;;;;;;;;;;;;;;;;;5326097;28;20007;-72
2023/08/03 07:32:06;;;;;;;;;;;;;;;;;;5325726;28;19910;-71
2023/08/03 07:34:38;;;;;;;;;;;;;;;;;;5325736;28;19916;-71
2023/08/03 07:37:09;;;;;;;;;;;;;;;;;;5325853;28;20362;-70
2023/08/03 07:39:40;;;;;;;;;;;;;;;;;;5325833;28;19915;-70
2023/08/03 07:42:11;;;;;;;;;;;;;;;;;;5326451;28;19904;-70
2023/08/03 07:44:42;;;;;;;;;;;;;;;;;;5324677;28;19903;-71
2023/08/03 07:47:13;;;;;;;;;;;;;;;;;;5326384;28;20381;-70
2023/08/03 07:49:44;;;;;;;;;;;;;;;;;;5325820;28;19904;-71
2023/08/03 07:52:15;;;;;;;;;;;;;;;;;;5325516;28;19926;-70
2023/08/03 07:54:47;;;;;;;;;;;;;;;;;;5325633;28;19911;-74
2023/08/03 07:57:18;;;;;;;;;;;;;;;;;;5323595;28;19957;-70
2023/08/03 07:59:49;;;;;;;;;;;;;;;;;;5314755;28;19908;-71
2023/08/03 08:02:20;;;;;;;;;;;;;;;;;;5325343;28;19904;-71
2023/08/03 08:04:51;;;;;;;;;;;;;;;;;;5325030;28;19903;-70
2023/08/03 08:07:22;;;;;;;;;;;;;;;;;;5324712;28;19910;-68
2023/08/03 08:09:53;;;;;;;;;;;;;;;;;;5324464;28;19957;-71
2023/08/03 08:12:25;;;;;;;;;;;;;;;;;;5323983;28;19915;-72
2023/08/03 08:14:56;;;;;;;;;;;;;;;;;;5324955;28;19907;-69
2023/08/03 08:17:27;;;;;;;;;;;;;;;;;;5325179;28;20345;-71
2023/08/03 08:19:58;;;;;;;;;;;;;;;;;;5323837;28;20001;-71
2023/08/03 08:22:29;;;;;;;;;;;;;;;;;;5323427;28;20426;-70
2023/08/03 08:25:00;;;;;;;;;;;;;;;;;;5323846;28;19907;-70
2023/08/03 08:27:31;;;;;;;;;;;;;;;;;;5323685;28;19904;-69
2023/08/03 08:30:02;;;;;;;;;;;;;;;;;;5323210;28;19904;-69
2023/08/03 08:32:33;;;;;;;;;;;;;;;;;;5324228;28;19907;-71
2023/08/03 08:35:05;;;;;;;;;;;;;;;;;;5324403;28;19920;-71
2023/08/03 08:37:36;;;;;;;;;;;;;;;;;;5324700;28;20377;-71
2023/08/03 08:40:07;;;;;;;;;;;;;;;;;;5325148;28;19907;-71
2023/08/03 08:42:38;;;;;;;;;;;;;;;;;;5323755;28;20015;-72
2023/08/03 08:45:09;;;;;;;;;;;;;;;;;;5325050;28;19904;-71
2023/08/03 08:47:40;;;;;;;;;;;;;;;;;;5323744;28;19904;-71
2023/08/03 08:50:11;;;;;;;;;;;;;;;;;;5325096;28;19904;-71
2023/08/03 08:52:43;;;;;;;;;;;;;;;;;;5324411;28;20410;-71
2023/08/03 08:55:14;;;;;;;;;;;;;;;;;;5324375;28;19904;-71
2023/08/03 08:57:45;;;;;;;;;;;;;;;;;;5323147;28;20370;-71
2023/08/03 09:00:16;;;;;;;;;;;;;;;;;;5322770;28;19915;-71
2023/08/03 09:02:47;;;;;;;;;;;;;;;;;;5321399;28;19930;-71
2023/08/03 09:05:18;;;;;;;;;;;;;;;;;;5322690;28;19978;-71
2023/08/03 09:07:49;;;;;;;;;;;;;;;;;;5322100;28;19903;-70
2023/08/03 09:10:20;;;;;;;;;;;;;;;;;;5321979;28;20036;-71
2023/08/03 09:12:51;;;;;;;;;;;;;;;;;;5322909;28;20005;-71
2023/08/03 09:15:22;;;;;;;;;;;;;;;;;;5324696;28;20044;-72
2023/08/03 09:17:54;;;;;;;;;;;;;;;;;;5323312;28;20385;-71
2023/08/03 09:20:28;;;;;;;;;;;;;;;;;;5324193;28;19904;-71
2023/08/03 09:22:59;;;;;;;;;;;;;;;;;;5323371;28;19915;-71
2023/08/03 09:25:30;;;;;;;;;;;;;;;;;;5324247;28;19904;-72
2023/08/03 09:28:01;;;;;;;;;;;;;;;;;;5324508;28;19904;-71
2023/08/03 09:30:32;;;;;;;;;;;;;;;;;;5323210;28;20294;-71
2023/08/03 09:33:03;;;;;;;;;;;;;;;;;;5325476;28;19904;-70
2023/08/03 09:35:34;;;;;;;;;;;;;;;;;;5328559;28;19915;-70
2023/08/03 09:38:05;;;;;;;;;;;;;;;;;;5328107;28;19916;-70
2023/08/03 09:40:36;;;;;;;;;;;;;;;;;;5328307;28;19910;-71
2023/08/03 09:43:08;;;;;;;;;;;;;;;;;;5328722;28;19903;-70
2023/08/03 09:45:39;;;;;;;;;;;;;;;;;;5327321;28;19910;-71
2023/08/03 09:48:10;;;;;;;;;;;;;;;;;;5328835;28;19990;-70
2023/08/03 09:50:41;;;;;;;;;;;;;;;;;;5327707;28;19904;-70
2023/08/03 09:53:12;;;;;;;;;;;;;;;;;;5328076;28;19907;-70
2023/08/03 09:55:43;;;;;;;;;;;;;;;;;;5327829;28;19912;-70
2023/08/03 09:58:14;;;;;;;;;;;;;;;;;;5327712;28;20271;-70
2023/08/03 10:00:45;;;;;;;;;;;;;;;;;;5327554;28;19968;-70
2023/08/03 10:03:20;;;;;;;;;;;;;;;;;;5327993;28;19903;-70
2023/08/03 10:05:52;;;;;;;;;;;;;;;;;;5326504;28;20419;-70
2023/08/03 10:08:23;;;;;;;;;;;;;;;;;;5328294;28;19904;-71
2023/08/03 10:10:55;;;;;;;;;;;;;;;;;;5328006;28;19954;-69
2023/08/03 10:13:27;;;;;;;;;;;;;;;;;;5327270;28;19904;-70
2023/08/03 10:15:58;;;;;;;;;;;;;;;;;;5327593;28;20006;-70
2023/08/03 10:18:29;;;;;;;;;;;;;;;;;;5325633;28;19908;-71
2023/08/03 10:21:00;;;;;;;;;;;;;;;;;;5325022;28;20014;-71
2023/08/03 10:23:31;;;;;;;;;;;;;;;;;;5325331;28;19943;-70
2023/08/03 10:26:02;;;;;;;;;;;;;;;;;;5325259;28;19938;-70
2023/08/03 10:28:34;;;;;;;;;;;;;;;;;;5325159;28;19911;-70
2023/08/03 10:31:05;;;;;;;;;;;;;;;;;;5325745;28;19903;-70
2023/08/03 10:33:36;;;;;;;;;;;;;;;;;;5326218;28;19911;-70
2023/08/03 10:36:07;;;;;;;;;;;;;;;;;;5327509;28;20002;-70
2023/08/03 10:38:38;;;;;;;;;;;;;;;;;;5327092;28;19920;-70
2023/08/03 10:41:09;;;;;;;;;;;;;;;;;;5326775;28;19903;-70
2023/08/03 10:43:40;;;;;;;;;;;;;;;;;;5326325;28;19903;-70
2023/08/03 10:46:11;;;;;;;;;;;;;;;;;;5327462;28;19903;-70
2023/08/03 10:48:42;;;;;;;;;;;;;;;;;;5326328;28;19903;-70
2023/08/03 10:51:14;;;;;;;;;;;;;;;;;;5327408;28;19911;-71
2023/08/03 10:53:45;;;;;;;;;;;;;;;;;;5326756;28;20282;-71
2023/08/03 10:56:16;;;;;;;;;;;;;;;;;;5326297;28;19911;-71
2023/08/03 10:58:47;;;;;;;;;;;;;;;;;;5326354;28;19907;-71
2023/08/03 11:01:18;;;;;;;;;;;;;;;;;;5326337;28;19912;-70
2023/08/03 11:03:49;;;;;;;;;;;;;;;;;;5326658;28;19912;-71
2023/08/03 11:06:20;;;;;;;;;;;;;;;;;;5327215;28;19938;-71
2023/08/03 11:08:51;;;;;;;;;;;;;;;;;;5325748;28;19904;-71
2023/08/03 11:11:23;;;;;;;;;;;;;;;;;;5327038;28;19957;-71
2023/08/03 11:13:54;;;;;;;;;;;;;;;;;;5326663;28;19904;-71
2023/08/03 11:16:26;;;;;;;;;;;;;;;;;;5325917;28;19957;-71
2023/08/03 11:18:57;;;;;;;;;;;;;;;;;;5326547;28;19903;-71
2023/08/03 11:21:29;;;;;;;;;;;;;;;;;;5326048;28;20369;-72
2023/08/03 11:24:00;;;;;;;;;;;;;;;;;;5326238;28;19904;-73
2023/08/03 11:26:31;;;;;;;;;;;;;;;;;;5326196;28;19910;-73
2023/08/03 11:29:03;;;;;;;;;;;;;;;;;;5326783;28;19910;-74
2023/08/03 11:31:34;;;;;;;;;;;;;;;;;;5325423;28;19911;-73
2023/08/03 11:34:05;;;;;;;;;;;;;;;;;;5326306;28;20426;-71
2023/08/03 11:36:36;;;;;;;;;;;;;;;;;;5325335;28;19916;-72
2023/08/03 11:39:07;;;;;;;;;;;;;;;;;;5326416;28;19911;-72
2023/08/03 11:41:38;;;;;;;;;;;;;;;;;;5325865;28;20289;-71
2023/08/03 11:44:09;;;;;;;;;;;;;;;;;;5325444;28;19903;-71
2023/08/03 11:46:40;;;;;;;;;;;;;;;;;;5325949;28;19934;-72
2023/08/03 11:49:13;;;;;;;;;;;;;;;;;;5326439;28;19904;-72
2023/08/03 11:51:44;;;;;;;;;;;;;;;;;;5325004;28;20362;-70
2023/08/03 11:54:15;;;;;;;;;;;;;;;;;;5325907;28;19914;-71
2023/08/03 11:56:46;;;;;;;;;;;;;;;;;;5324271;28;19915;-72
2023/08/03 11:59:17;;;;;;;;;;;;;;;;;;5325420;28;19913;-71
2023/08/03 12:01:48;;;;;;;;;;;;;;;;;;5325284;28;19900;-71
2023/08/03 12:04:21;;;;;;;;;;;;;;;;;;5325639;28;19903;-71
2023/08/03 12:06:52;;;;;;;;;;;;;;;;;;5325270;28;19988;-71
2023/08/03 12:09:23;;;;;;;;;;;;;;;;;;5325378;28;19964;-72
2023/08/03 12:11:54;;;;;;;;;;;;;;;;;;5324570;28;20278;-71
2023/08/03 12:14:25;;;;;;;;;;;;;;;;;;5325475;28;19899;-72
2023/08/03 12:16:57;;;;;;;;;;;;;;;;;;5325318;28;20029;-70
2023/08/03 12:19:32;;;;;;;;;;;;;;;;;;5324436;28;19910;-69
2023/08/03 12:22:03;;;;;;;;;;;;;;;;;;5325644;28;19903;-71
2023/08/03 12:24:34;;;;;;;;;;;;;;;;;;5324585;28;19908;-71
2023/08/03 12:27:05;;;;;;;;;;;;;;;;;;5324775;28;20362;-72
2023/08/03 12:29:37;;;;;;;;;;;;;;;;;;5324573;28;20276;-71
2023/08/03 12:32:08;;;;;;;;;;;;;;;;;;5325445;28;19910;-71
2023/08/03 12:34:39;;;;;;;;;;;;;;;;;;5323589;28;19968;-71
2023/08/03 12:37:10;;;;;;;;;;;;;;;;;;5325005;28;20352;-70
2023/08/03 12:39:41;;;;;;;;;;;;;;;;;;5313813;28;19907;-70
2023/08/03 12:42:12;;;;;;;;;;;;;;;;;;5324520;28;19912;-71
2023/08/03 12:44:43;;;;;;;;;;;;;;;;;;5324386;28;19978;-71
2023/08/03 12:47:14;;;;;;;;;;;;;;;;;;5324075;28;19943;-70
2023/08/03 12:49:46;;;;;;;;;;;;;;;;;;5323994;28;20116;-70
2023/08/03 12:52:17;;;;;;;;;;;;;;;;;;5325134;28;19950;-69
2023/08/03 12:54:48;;;;;;;;;;;;;;;;;;5322954;28;19935;-70
2023/08/03 12:57:19;;;;;;;;;;;;;;;;;;5324627;28;19912;-69
2023/08/03 12:59:50;;;;;;;;;;;;;;;;;;5322994;28;19947;-70
2023/08/03 13:02:21;;;;;;;;;;;;;;;;;;5323835;28;19910;-72
2023/08/03 13:04:52;;;;;;;;;;;;;;;;;;5321581;28;19903;-72
2023/08/03 13:07:23;;;;;;;;;;;;;;;;;;5321951;28;19927;-72
2023/08/03 13:09:54;;;;;;;;;;;;;;;;;;5319803;28;19908;-71
2023/08/03 13:12:25;;;;;;;;;;;;;;;;;;5321669;28;20282;-71
2023/08/03 13:14:57;;;;;;;;;;;;;;;;;;5321694;28;19908;-71
2023/08/03 13:17:28;;;;;;;;;;;;;;;;;;5322249;28;20327;-71
2023/08/03 13:19:59;;;;;;;;;;;;;;;;;;5323145;28;19911;-71
2023/08/03 13:22:30;;;;;;;;;;;;;;;;;;5323188;28;19904;-71
2023/08/03 13:25:01;;;;;;;;;;;;;;;;;;5324737;28;20350;-71
2023/08/03 13:27:32;;;;;;;;;;;;;;;;;;5323838;28;19904;-71
2023/08/03 13:30:03;;;;;;;;;;;;;;;;;;5323500;28;20328;-71
2023/08/03 13:32:35;;;;;;;;;;;;;;;;;;5323901;28;19908;-72
2023/08/03 13:35:06;;;;;;;;;;;;;;;;;;5324382;28;19916;-72
2023/08/03 13:37:37;;;;;;;;;;;;;;;;;;5323249;28;20342;-72
2023/08/03 13:40:08;;;;;;;;;;;;;;;;;;5324558;28;19910;-72
2023/08/03 13:42:39;;;;;;;;;;;;;;;;;;5323870;28;19956;-72
2023/08/03 13:45:11;;;;;;;;;;;;;;;;;;5323513;28;19971;-71
2023/08/03 13:47:42;;;;;;;;;;;;;;;;;;5323940;28;19910;-72
2023/08/03 13:50:13;;;;;;;;;;;;;;;;;;5323475;28;19904;-72
2023/08/03 13:52:44;;;;;;;;;;;;;;;;;;5323725;28;19914;-74
2023/08/03 13:55:15;;;;;;;;;;;;;;;;;;5316476;28;19998;-72
2023/08/03 13:57:46;;;;;;;;;;;;;;;;;;5322001;28;19916;-73
2023/08/03 14:00:18;;;;;;;;;;;;;;;;;;5314092;28;19907;-72
2023/08/03 14:02:49;;;;;;;;;;;;;;;;;;5300128;28;20087;-73
2023/08/03 14:05:20;;;;;;;;;;;;;;;;;;5300638;28;20423;-73
2023/08/03 14:07:51;;;;;;;;;;;;;;;;;;5301003;28;19911;-73
2023/08/03 14:10:22;;;;;;;;;;;;;;;;;;5301716;28;19973;-72
2023/08/03 14:12:53;;;;;;;;;;;;;;;;;;5300690;28;19908;-73
2023/08/03 14:15:24;;;;;;;;;;;;;;;;;;5301570;28;19908;-73
2023/08/03 14:17:55;;;;;;;;;;;;;;;;;;5301128;28;20019;-72
2023/08/03 14:20:26;;;;;;;;;;;;;;;;;;5304279;28;19908;-72
2023/08/03 14:22:57;;;;;;;;;;;;;;;;;;5305118;28;19991;-73
2023/08/03 14:25:29;;;;;;;;;;;;;;;;;;5304416;28;20011;-73
2023/08/03 14:28:00;;;;;;;;;;;;;;;;;;5305281;28;19914;-72
2023/08/03 14:30:31;;;;;;;;;;;;;;;;;;5304728;28;20305;-73
2023/08/03 14:33:03;;;;;;;;;;;;;;;;;;5304836;28;19904;-72
2023/08/03 14:35:34;;;;;;;;;;;;;;;;;;5304905;28;20022;-73
2023/08/03 14:38:05;;;;;;;;;;;;;;;;;;5305436;28;19922;-72
2023/08/03 14:40:37;;;;;;;;;;;;;;;;;;5303898;28;19911;-73
2023/08/03 14:43:08;;;;;;;;;;;;;;;;;;5304802;28;19935;-73
2023/08/03 14:45:39;;;;;;;;;;;;;;;;;;5304573;28;19904;-73
2023/08/03 14:48:10;;;;;;;;;;;;;;;;;;5304477;28;19961;-72
2023/08/03 14:50:41;;;;;;;;;;;;;;;;;;5304468;28;19904;-73
2023/08/03 14:53:12;;;;;;;;;;;;;;;;;;5304230;28;19908;-73
2023/08/03 14:55:43;;;;;;;;;;;;;;;;;;5304412;28;19912;-72
2023/08/03 14:58:14;;;;;;;;;;;;;;;;;;5305030;28;20411;-74
2023/08/03 15:00:45;;;;;;;;;;;;;;;;;;5302656;28;19959;-73
2023/08/03 15:03:18;;;;;;;;;;;;;;;;;;5304476;28;19908;-73
2023/08/03 15:05:49;;;;;;;;;;;;;;;;;;5304121;28;19908;-73
2023/08/03 15:08:20;;;;;;;;;;;;;;;;;;5303502;28;19904;-74
2023/08/03 15:10:52;;;;;;;;;;;;;;;;;;5305015;28;19911;-74
2023/08/03 15:13:23;;;;;;;;;;;;;;;;;;5305464;28;19996;-73
2023/08/03 15:15:55;;;;;;;;;;;;;;;;;;5303610;28;19908;-74
2023/08/03 15:18:26;;;;;;;;;;;;;;;;;;5304357;28;19911;-73
2023/08/03 15:20:57;;;;;;;;;;;;;;;;;;5304847;28;20362;-73
2023/08/03 15:23:28;;;;;;;;;;;;;;;;;;5304452;28;19908;-73
2023/08/03 15:25:59;;;;;;;;;;;;;;;;;;5305295;28;20325;-74
2023/08/03 15:28:30;;;;;;;;;;;;;;;;;;5304116;28;19930;-73
2023/08/03 15:31:01;;;;;;;;;;;;;;;;;;5305289;28;20374;-74
2023/08/03 15:33:33;;;;;;;;;;;;;;;;;;5304216;28;20006;-73
2023/08/03 15:36:04;;;;;;;;;;;;;;;;;;5304499;28;19904;-72
2023/08/03 15:38:35;;;;;;;;;;;;;;;;;;5304720;28;20282;-73
2023/08/03 15:41:07;;;;;;;;;;;;;;;;;;5305225;28;19908;-72
2023/08/03 15:43:38;;;;;;;;;;;;;;;;;;5303793;28;19904;-73
2023/08/03 15:46:10;;;;;;;;;;;;;;;;;;5304979;28;19990;-73
2023/08/03 15:48:41;;;;;;;;;;;;;;;;;;5304316;28;19908;-72
2023/08/03 15:51:12;;;;;;;;;;;;;;;;;;5304294;28;19908;-72
2023/08/03 15:53:43;;;;;;;;;;;;;;;;;;5304112;28;19912;-72
2023/08/03 15:56:14;;;;;;;;;;;;;;;;;;5304696;28;19911;-73
2023/08/03 15:58:46;;;;;;;;;;;;;;;;;;5303275;28;19919;-72
2023/08/03 16:01:17;;;;;;;;;;;;;;;;;;5304790;28;19908;-72
2023/08/03 16:03:48;;;;;;;;;;;;;;;;;;5303371;28;19904;-72
2023/08/03 16:06:21;;;;;;;;;;;;;;;;;;5304530;28;19934;-73
2023/08/03 16:08:52;;;;;;;;;;;;;;;;;;5304012;28;19904;-73
2023/08/03 16:11:23;;;;;;;;;;;;;;;;;;5303560;28;19956;-73
2023/08/03 16:13:54;;;;;;;;;;;;;;;;;;5304116;28;19904;-73
2023/08/03 16:16:25;;;;;;;;;;;;;;;;;;5304083;28;19908;-74
2023/08/03 16:18:56;;;;;;;;;;;;;;;;;;5303414;28;19915;-73
2023/08/03 16:21:27;;;;;;;;;;;;;;;;;;5303828;28;19904;-74
2023/08/03 16:23:58;;;;;;;;;;;;;;;;;;5304218;28;19911;-73
2023/08/03 16:26:30;;;;;;;;;;;;;;;;;;5303131;28;19911;-73
2023/08/03 16:29:01;;;;;;;;;;;;;;;;;;5304336;28;19949;-73
2023/08/03 16:31:34;;;;;;;;;;;;;;;;;;5303593;28;19912;-74
2023/08/03 16:34:05;;;;;;;;;;;;;;;;;;5303480;28;19941;-73
2023/08/03 16:36:36;;;;;;;;;;;;;;;;;;5303444;28;20035;-73
2023/08/03 16:39:08;;;;;;;;;;;;;;;;;;5303531;28;19911;-74
2023/08/03 16:41:40;;;;;;;;;;;;;;;;;;5302788;28;19904;-72
2023/08/03 16:44:12;;;;;;;;;;;;;;;;;;5303806;28;19966;-72
2023/08/03 16:46:43;;;;;;;;;;;;;;;;;;5302454;28;20356;-72
2023/08/03 16:49:17;;;;;;;;;;;;;;;;;;5300592;28;19957;-72
2023/08/03 16:51:48;;;;;;;;;;;;;;;;;;5305725;28;19930;-70
2023/08/03 16:54:19;;;;;;;;;;;;;;;;;;5322760;28;19903;-71
2023/08/03 16:56:50;;;;;;;;;;;;;;;;;;5324366;28;19919;-72
2023/08/03 16:59:21;;;;;;;;;;;;;;;;;;5324131;28;20315;-71
2023/08/03 17:01:52;;;;;;;;;;;;;;;;;;5323262;28;19949;-72
2023/08/03 17:04:24;;;;;;;;;;;;;;;;;;5323555;28;20362;-72
2023/08/03 17:06:55;;;;;;;;;;;;;;;;;;5323180;28;19906;-71
2023/08/03 17:09:26;;;;;;;;;;;;;;;;;;5322644;28;19957;-72
2023/08/03 17:11:58;;;;;;;;;;;;;;;;;;5324580;28;19907;-71